sensor_id;sensor_type;location;lat;lon;timestamp;P1;durP1;ratioP1;P2;durP2;ratioP2
434;SDS011;204;48.942;9.256;2023-02-13T00:00:01;25.30;;;19.67;;
434;SDS011;204;48.942;9.256;2023-02-13T00:02:28;24.83;;;18.15;;
434;SDS011;204;48.942;9.256;2023-02-13T00:04:53;23.20;;;19.43;;
434;SDS011;204;48.942;9.256;2023-02-13T00:07:19;26.87;;;19.03;;
434;SDS011;204;48.942;9.256;2023-02-13T00:09:44;24.30;;;18.00;;
434;SDS011;204;48.942;9.256;2023-02-13T00:12:10;22.17;;;17.80;;
434;SDS011;204;48.942;9.256;2023-02-13T00:14:36;23.83;;;18.13;;
434;SDS011;204;48.942;9.256;2023-02-13T00:17:03;22.50;;;17.77;;
434;SDS011;204;48.942;9.256;2023-02-13T00:19:29;21.40;;;17.52;;
434;SDS011;204;48.942;9.256;2023-02-13T00:21:55;21.60;;;17.20;;
434;SDS011;204;48.942;9.256;2023-02-13T00:24:21;21.67;;;17.77;;
434;SDS011;204;48.942;9.256;2023-02-13T00:26:46;23.40;;;18.00;;
434;SDS011;204;48.942;9.256;2023-02-13T00:29:12;21.50;;;17.50;;
434;SDS011;204;48.942;9.256;2023-02-13T00:31:38;24.10;;;17.17;;
434;SDS011;204;48.942;9.256;2023-02-13T00:34:03;27.47;;;18.27;;
434;SDS011;204;48.942;9.256;2023-02-13T00:36:29;21.90;;;16.23;;
434;SDS011;204;48.942;9.256;2023-02-13T00:38:54;22.77;;;17.20;;
434;SDS011;204;48.942;9.256;2023-02-13T00:41:20;21.90;;;18.37;;
434;SDS011;204;48.942;9.256;2023-02-13T00:43:46;23.23;;;18.90;;
434;SDS011;204;48.942;9.256;2023-02-13T00:46:12;24.23;;;19.75;;
434;SDS011;204;48.942;9.256;2023-02-13T00:48:39;26.02;;;18.17;;
434;SDS011;204;48.942;9.256;2023-02-13T00:51:05;24.20;;;17.07;;
434;SDS011;204;48.942;9.256;2023-02-13T00:53:31;20.15;;;17.67;;
434;SDS011;204;48.942;9.256;2023-02-13T00:55:58;22.85;;;19.00;;
434;SDS011;204;48.942;9.256;2023-02-13T00:58:24;26.10;;;19.23;;
434;SDS011;204;48.942;9.256;2023-02-13T01:00:50;21.07;;;18.50;;
434;SDS011;204;48.942;9.256;2023-02-13T01:03:17;21.77;;;16.95;;
434;SDS011;204;48.942;9.256;2023-02-13T01:05:43;23.70;;;16.52;;
434;SDS011;204;48.942;9.256;2023-02-13T01:08:09;26.40;;;16.88;;
434;SDS011;204;48.942;9.256;2023-02-13T01:10:36;20.35;;;16.25;;
434;SDS011;204;48.942;9.256;2023-02-13T01:13:02;21.50;;;17.08;;
434;SDS011;204;48.942;9.256;2023-02-13T01:15:28;23.50;;;17.50;;
434;SDS011;204;48.942;9.256;2023-02-13T01:17:54;21.83;;;16.63;;
434;SDS011;204;48.942;9.256;2023-02-13T01:20:21;19.98;;;17.30;;
434;SDS011;204;48.942;9.256;2023-02-13T01:22:48;23.00;;;18.38;;
434;SDS011;204;48.942;9.256;2023-02-13T01:25:14;20.93;;;17.03;;
434;SDS011;204;48.942;9.256;2023-02-13T01:27:40;21.37;;;16.60;;
434;SDS011;204;48.942;9.256;2023-02-13T01:30:06;24.67;;;17.10;;
434;SDS011;204;48.942;9.256;2023-02-13T01:32:37;22.25;;;17.63;;
434;SDS011;204;48.942;9.256;2023-02-13T01:35:07;22.92;;;17.48;;
434;SDS011;204;48.942;9.256;2023-02-13T01:37:33;20.52;;;17.65;;
434;SDS011;204;48.942;9.256;2023-02-13T01:39:59;23.97;;;18.20;;
434;SDS011;204;48.942;9.256;2023-02-13T01:42:26;19.87;;;15.90;;
434;SDS011;204;48.942;9.256;2023-02-13T01:47:39;21.73;;;17.45;;
434;SDS011;204;48.942;9.256;2023-02-13T01:52:36;22.88;;;19.33;;
434;SDS011;204;48.942;9.256;2023-02-13T01:55:05;20.42;;;17.08;;
434;SDS011;204;48.942;9.256;2023-02-13T01:57:31;23.92;;;17.35;;
434;SDS011;204;48.942;9.256;2023-02-13T02:00:16;24.60;;;18.65;;
434;SDS011;204;48.942;9.256;2023-02-13T02:02:52;22.10;;;17.70;;
434;SDS011;204;48.942;9.256;2023-02-13T02:05:23;24.10;;;18.60;;
434;SDS011;204;48.942;9.256;2023-02-13T02:07:53;23.00;;;17.63;;
434;SDS011;204;48.942;9.256;2023-02-13T02:10:20;26.80;;;20.35;;
434;SDS011;204;48.942;9.256;2023-02-13T02:15:14;22.38;;;17.85;;
434;SDS011;204;48.942;9.256;2023-02-13T02:17:40;23.85;;;18.25;;
434;SDS011;204;48.942;9.256;2023-02-13T02:46:21;24.02;;;17.77;;
434;SDS011;204;48.942;9.256;2023-02-13T02:49:00;23.10;;;18.95;;
434;SDS011;204;48.942;9.256;2023-02-13T02:54:17;24.53;;;19.37;;
434;SDS011;204;48.942;9.256;2023-02-13T02:57:13;24.40;;;19.50;;
434;SDS011;204;48.942;9.256;2023-02-13T02:59:42;22.73;;;18.85;;
434;SDS011;204;48.942;9.256;2023-02-13T03:02:29;21.75;;;18.65;;
434;SDS011;204;48.942;9.256;2023-02-13T03:05:26;19.52;;;18.25;;
434;SDS011;204;48.942;9.256;2023-02-13T03:08:14;25.35;;;21.15;;
434;SDS011;204;48.942;9.256;2023-02-13T03:11:01;23.92;;;19.10;;
434;SDS011;204;48.942;9.256;2023-02-13T03:13:45;25.90;;;22.08;;
434;SDS011;204;48.942;9.256;2023-02-13T03:16:17;22.92;;;19.92;;
434;SDS011;204;48.942;9.256;2023-02-13T03:19:04;27.17;;;20.60;;
434;SDS011;204;48.942;9.256;2023-02-13T03:22:01;24.63;;;20.67;;
434;SDS011;204;48.942;9.256;2023-02-13T03:30:28;27.40;;;23.33;;
434;SDS011;204;48.942;9.256;2023-02-13T03:35:24;27.83;;;23.17;;
434;SDS011;204;48.942;9.256;2023-02-13T03:38:10;28.85;;;22.92;;
434;SDS011;204;48.942;9.256;2023-02-13T03:40:44;27.58;;;21.55;;
434;SDS011;204;48.942;9.256;2023-02-13T03:43:40;30.08;;;24.55;;
434;SDS011;204;48.942;9.256;2023-02-13T03:46:11;26.20;;;21.23;;
434;SDS011;204;48.942;9.256;2023-02-13T03:48:39;25.00;;;21.15;;
434;SDS011;204;48.942;9.256;2023-02-13T03:51:29;27.50;;;21.33;;
434;SDS011;204;48.942;9.256;2023-02-13T03:54:01;26.63;;;21.40;;
434;SDS011;204;48.942;9.256;2023-02-13T03:56:31;28.55;;;21.83;;
434;SDS011;204;48.942;9.256;2023-02-13T03:59:21;27.60;;;21.08;;
434;SDS011;204;48.942;9.256;2023-02-13T04:02:12;28.63;;;22.30;;
434;SDS011;204;48.942;9.256;2023-02-13T04:04:56;27.25;;;20.85;;
434;SDS011;204;48.942;9.256;2023-02-13T04:07:26;23.73;;;20.25;;
434;SDS011;204;48.942;9.256;2023-02-13T04:10:27;24.38;;;19.67;;
434;SDS011;204;48.942;9.256;2023-02-13T04:15:38;27.50;;;20.42;;
434;SDS011;204;48.942;9.256;2023-02-13T04:18:15;25.17;;;20.17;;
434;SDS011;204;48.942;9.256;2023-02-13T04:20:44;28.85;;;21.02;;
434;SDS011;204;48.942;9.256;2023-02-13T04:23:10;25.10;;;19.13;;
434;SDS011;204;48.942;9.256;2023-02-13T04:25:37;27.05;;;20.67;;
434;SDS011;204;48.942;9.256;2023-02-13T04:28:05;28.40;;;21.88;;
434;SDS011;204;48.942;9.256;2023-02-13T04:30:31;28.83;;;23.93;;
434;SDS011;204;48.942;9.256;2023-02-13T04:32:57;23.02;;;20.17;;
434;SDS011;204;48.942;9.256;2023-02-13T04:35:22;30.87;;;22.10;;
434;SDS011;204;48.942;9.256;2023-02-13T04:37:48;27.87;;;21.70;;
434;SDS011;204;48.942;9.256;2023-02-13T04:40:14;29.47;;;23.20;;
434;SDS011;204;48.942;9.256;2023-02-13T04:42:39;31.00;;;26.17;;
434;SDS011;204;48.942;9.256;2023-02-13T04:45:05;30.03;;;22.20;;
434;SDS011;204;48.942;9.256;2023-02-13T04:47:31;28.17;;;22.87;;
434;SDS011;204;48.942;9.256;2023-02-13T04:49:56;25.90;;;22.87;;
434;SDS011;204;48.942;9.256;2023-02-13T04:52:22;28.60;;;22.63;;
434;SDS011;204;48.942;9.256;2023-02-13T04:54:47;26.23;;;22.30;;
434;SDS011;204;48.942;9.256;2023-02-13T04:57:13;29.90;;;24.60;;
434;SDS011;204;48.942;9.256;2023-02-13T04:59:39;27.67;;;23.00;;
434;SDS011;204;48.942;9.256;2023-02-13T05:02:05;28.07;;;23.73;;
434;SDS011;204;48.942;9.256;2023-02-13T05:04:31;34.60;;;26.30;;
434;SDS011;204;48.942;9.256;2023-02-13T05:06:56;35.90;;;27.27;;
434;SDS011;204;48.942;9.256;2023-02-13T05:09:22;33.33;;;25.40;;
434;SDS011;204;48.942;9.256;2023-02-13T05:11:49;42.83;;;31.20;;
434;SDS011;204;48.942;9.256;2023-02-13T05:14:16;43.60;;;31.13;;
434;SDS011;204;48.942;9.256;2023-02-13T05:16:42;36.53;;;27.10;;
434;SDS011;204;48.942;9.256;2023-02-13T05:19:07;28.47;;;23.27;;
434;SDS011;204;48.942;9.256;2023-02-13T05:21:33;32.17;;;22.00;;
434;SDS011;204;48.942;9.256;2023-02-13T05:24:17;33.85;;;23.63;;
434;SDS011;204;48.942;9.256;2023-02-13T05:26:42;48.50;;;25.23;;
434;SDS011;204;48.942;9.256;2023-02-13T05:29:09;65.43;;;27.80;;
434;SDS011;204;48.942;9.256;2023-02-13T05:31:45;66.65;;;28.25;;
434;SDS011;204;48.942;9.256;2023-02-13T05:34:11;59.63;;;29.52;;
434;SDS011;204;48.942;9.256;2023-02-13T05:36:36;56.90;;;28.93;;
434;SDS011;204;48.942;9.256;2023-02-13T05:39:02;83.37;;;31.80;;
434;SDS011;204;48.942;9.256;2023-02-13T05:41:28;76.17;;;29.73;;
434;SDS011;204;48.942;9.256;2023-02-13T05:43:53;40.67;;;25.33;;
434;SDS011;204;48.942;9.256;2023-02-13T05:46:19;88.13;;;30.83;;
434;SDS011;204;48.942;9.256;2023-02-13T05:48:44;42.47;;;25.90;;
434;SDS011;204;48.942;9.256;2023-02-13T05:51:10;55.13;;;27.30;;
434;SDS011;204;48.942;9.256;2023-02-13T05:53:36;73.10;;;29.07;;
434;SDS011;204;48.942;9.256;2023-02-13T05:56:02;101.23;;;34.00;;
434;SDS011;204;48.942;9.256;2023-02-13T05:58:29;96.55;;;27.45;;
434;SDS011;204;48.942;9.256;2023-02-13T06:00:55;89.17;;;30.27;;
434;SDS011;204;48.942;9.256;2023-02-13T06:03:25;64.43;;;25.63;;
434;SDS011;204;48.942;9.256;2023-02-13T06:05:52;136.32;;;33.38;;
434;SDS011;204;48.942;9.256;2023-02-13T06:08:19;63.38;;;26.10;;
434;SDS011;204;48.942;9.256;2023-02-13T06:10:45;123.80;;;30.67;;
434;SDS011;204;48.942;9.256;2023-02-13T06:13:11;128.55;;;30.10;;
434;SDS011;204;48.942;9.256;2023-02-13T06:15:37;94.73;;;25.93;;
434;SDS011;204;48.942;9.256;2023-02-13T06:18:03;105.38;;;29.00;;
434;SDS011;204;48.942;9.256;2023-02-13T06:20:28;91.50;;;29.63;;
434;SDS011;204;48.942;9.256;2023-02-13T06:22:54;115.37;;;33.77;;
434;SDS011;204;48.942;9.256;2023-02-13T06:25:20;104.53;;;31.40;;
434;SDS011;204;48.942;9.256;2023-02-13T06:27:46;111.07;;;30.00;;
434;SDS011;204;48.942;9.256;2023-02-13T06:30:12;104.80;;;30.00;;
434;SDS011;204;48.942;9.256;2023-02-13T06:32:38;164.88;;;35.30;;
434;SDS011;204;48.942;9.256;2023-02-13T06:35:04;197.23;;;39.43;;
434;SDS011;204;48.942;9.256;2023-02-13T06:37:30;168.90;;;35.65;;
434;SDS011;204;48.942;9.256;2023-02-13T06:39:56;171.73;;;35.80;;
434;SDS011;204;48.942;9.256;2023-02-13T06:42:21;92.27;;;28.93;;
434;SDS011;204;48.942;9.256;2023-02-13T06:44:47;118.50;;;32.30;;
434;SDS011;204;48.942;9.256;2023-02-13T06:47:13;104.23;;;31.00;;
434;SDS011;204;48.942;9.256;2023-02-13T06:49:38;103.33;;;30.67;;
434;SDS011;204;48.942;9.256;2023-02-13T06:52:04;198.17;;;39.40;;
434;SDS011;204;48.942;9.256;2023-02-13T06:54:29;122.13;;;30.47;;
434;SDS011;204;48.942;9.256;2023-02-13T06:56:55;119.40;;;31.53;;
434;SDS011;204;48.942;9.256;2023-02-13T06:59:20;145.27;;;34.90;;
434;SDS011;204;48.942;9.256;2023-02-13T07:01:46;44.00;;;26.70;;
434;SDS011;204;48.942;9.256;2023-02-13T07:04:11;44.03;;;26.53;;
434;SDS011;204;48.942;9.256;2023-02-13T07:06:37;54.80;;;30.00;;
434;SDS011;204;48.942;9.256;2023-02-13T07:09:03;47.17;;;29.13;;
434;SDS011;204;48.942;9.256;2023-02-13T07:11:28;47.13;;;29.37;;
434;SDS011;204;48.942;9.256;2023-02-13T07:13:54;37.60;;;27.60;;
434;SDS011;204;48.942;9.256;2023-02-13T07:16:20;36.93;;;25.47;;
434;SDS011;204;48.942;9.256;2023-02-13T07:18:45;37.50;;;25.33;;
434;SDS011;204;48.942;9.256;2023-02-13T07:21:11;38.47;;;25.97;;
434;SDS011;204;48.942;9.256;2023-02-13T07:23:36;27.93;;;21.80;;
434;SDS011;204;48.942;9.256;2023-02-13T07:26:02;25.47;;;20.00;;
434;SDS011;204;48.942;9.256;2023-02-13T07:28:28;33.43;;;25.27;;
434;SDS011;204;48.942;9.256;2023-02-13T07:30:54;31.52;;;23.77;;
434;SDS011;204;48.942;9.256;2023-02-13T07:33:20;31.77;;;23.80;;
434;SDS011;204;48.942;9.256;2023-02-13T07:35:46;35.72;;;24.77;;
434;SDS011;204;48.942;9.256;2023-02-13T07:38:16;35.28;;;25.80;;
434;SDS011;204;48.942;9.256;2023-02-13T07:40:42;35.03;;;24.42;;
434;SDS011;204;48.942;9.256;2023-02-13T07:43:08;29.87;;;22.33;;
434;SDS011;204;48.942;9.256;2023-02-13T07:45:34;79.67;;;29.13;;
434;SDS011;204;48.942;9.256;2023-02-13T07:47:59;44.67;;;24.83;;
434;SDS011;204;48.942;9.256;2023-02-13T07:50:26;88.60;;;31.03;;
434;SDS011;204;48.942;9.256;2023-02-13T07:52:56;38.72;;;25.25;;
434;SDS011;204;48.942;9.256;2023-02-13T07:55:23;39.83;;;24.35;;
434;SDS011;204;48.942;9.256;2023-02-13T07:57:49;68.63;;;26.63;;
434;SDS011;204;48.942;9.256;2023-02-13T08:00:15;110.53;;;32.53;;
434;SDS011;204;48.942;9.256;2023-02-13T08:02:41;206.32;;;39.50;;
434;SDS011;204;48.942;9.256;2023-02-13T08:05:07;118.90;;;31.33;;
434;SDS011;204;48.942;9.256;2023-02-13T08:07:33;40.87;;;23.10;;
434;SDS011;204;48.942;9.256;2023-02-13T08:09:59;41.63;;;23.97;;
434;SDS011;204;48.942;9.256;2023-02-13T08:12:43;30.38;;;23.30;;
434;SDS011;204;48.942;9.256;2023-02-13T08:15:12;34.42;;;25.58;;
434;SDS011;204;48.942;9.256;2023-02-13T08:17:39;30.15;;;24.77;;
434;SDS011;204;48.942;9.256;2023-02-13T08:20:05;26.50;;;23.60;;
434;SDS011;204;48.942;9.256;2023-02-13T08:22:32;27.65;;;22.55;;
434;SDS011;204;48.942;9.256;2023-02-13T08:24:58;29.70;;;22.50;;
434;SDS011;204;48.942;9.256;2023-02-13T08:27:23;30.73;;;22.20;;
434;SDS011;204;48.942;9.256;2023-02-13T08:29:49;30.07;;;22.80;;
434;SDS011;204;48.942;9.256;2023-02-13T08:32:15;27.43;;;22.37;;
434;SDS011;204;48.942;9.256;2023-02-13T08:34:41;32.28;;;24.88;;
434;SDS011;204;48.942;9.256;2023-02-13T08:37:06;35.73;;;23.90;;
434;SDS011;204;48.942;9.256;2023-02-13T08:39:32;30.77;;;24.73;;
434;SDS011;204;48.942;9.256;2023-02-13T08:41:57;29.83;;;22.90;;
434;SDS011;204;48.942;9.256;2023-02-13T08:44:23;32.57;;;24.30;;
434;SDS011;204;48.942;9.256;2023-02-13T08:46:49;33.77;;;25.40;;
434;SDS011;204;48.942;9.256;2023-02-13T08:49:14;29.80;;;22.97;;
434;SDS011;204;48.942;9.256;2023-02-13T08:51:40;27.50;;;22.73;;
434;SDS011;204;48.942;9.256;2023-02-13T08:54:06;30.40;;;24.33;;
434;SDS011;204;48.942;9.256;2023-02-13T08:56:31;30.43;;;23.87;;
434;SDS011;204;48.942;9.256;2023-02-13T08:58:57;26.40;;;23.17;;
434;SDS011;204;48.942;9.256;2023-02-13T09:01:23;31.00;;;23.40;;
434;SDS011;204;48.942;9.256;2023-02-13T09:03:48;30.23;;;24.30;;
434;SDS011;204;48.942;9.256;2023-02-13T09:06:14;26.30;;;22.63;;
434;SDS011;204;48.942;9.256;2023-02-13T09:08:39;30.93;;;23.60;;
434;SDS011;204;48.942;9.256;2023-02-13T09:11:05;31.80;;;23.90;;
434;SDS011;204;48.942;9.256;2023-02-13T09:13:31;34.33;;;23.95;;
434;SDS011;204;48.942;9.256;2023-02-13T09:15:59;24.90;;;21.65;;
434;SDS011;204;48.942;9.256;2023-02-13T09:18:26;28.20;;;22.80;;
434;SDS011;204;48.942;9.256;2023-02-13T09:20:59;30.27;;;22.52;;
434;SDS011;204;48.942;9.256;2023-02-13T09:23:26;44.00;;;38.15;;
434;SDS011;204;48.942;9.256;2023-02-13T09:25:54;30.75;;;23.92;;
434;SDS011;204;48.942;9.256;2023-02-13T09:28:22;30.08;;;23.98;;
434;SDS011;204;48.942;9.256;2023-02-13T09:30:47;24.77;;;20.47;;
434;SDS011;204;48.942;9.256;2023-02-13T09:33:13;30.67;;;23.50;;
434;SDS011;204;48.942;9.256;2023-02-13T09:35:38;27.40;;;22.10;;
434;SDS011;204;48.942;9.256;2023-02-13T09:38:07;27.50;;;22.80;;
434;SDS011;204;48.942;9.256;2023-02-13T09:40:38;25.47;;;21.33;;
434;SDS011;204;48.942;9.256;2023-02-13T09:43:30;24.85;;;20.05;;
434;SDS011;204;48.942;9.256;2023-02-13T09:46:03;26.08;;;20.98;;
434;SDS011;204;48.942;9.256;2023-02-13T09:48:37;27.73;;;21.92;;
434;SDS011;204;48.942;9.256;2023-02-13T09:51:08;26.80;;;21.83;;
434;SDS011;204;48.942;9.256;2023-02-13T09:53:39;22.17;;;19.42;;
434;SDS011;204;48.942;9.256;2023-02-13T09:56:17;24.52;;;19.77;;
434;SDS011;204;48.942;9.256;2023-02-13T09:58:48;20.95;;;18.25;;
434;SDS011;204;48.942;9.256;2023-02-13T10:01:27;20.63;;;16.65;;
434;SDS011;204;48.942;9.256;2023-02-13T10:06:37;21.27;;;16.95;;
434;SDS011;204;48.942;9.256;2023-02-13T10:15:02;17.90;;;14.15;;
434;SDS011;204;48.942;9.256;2023-02-13T10:17:46;17.70;;;14.52;;
434;SDS011;204;48.942;9.256;2023-02-13T10:25:55;15.57;;;13.95;;
434;SDS011;204;48.942;9.256;2023-02-13T10:28:29;16.80;;;14.15;;
434;SDS011;204;48.942;9.256;2023-02-13T10:31:09;15.00;;;13.18;;
434;SDS011;204;48.942;9.256;2023-02-13T10:36:15;16.50;;;13.60;;
434;SDS011;204;48.942;9.256;2023-02-13T10:39:01;15.80;;;13.50;;
434;SDS011;204;48.942;9.256;2023-02-13T10:58:11;14.40;;;12.93;;
434;SDS011;204;48.942;9.256;2023-02-13T11:00:46;13.57;;;12.90;;
434;SDS011;204;48.942;9.256;2023-02-13T11:03:17;16.13;;;14.93;;
434;SDS011;204;48.942;9.256;2023-02-13T11:05:48;18.77;;;16.77;;
434;SDS011;204;48.942;9.256;2023-02-13T11:10:48;16.92;;;14.05;;
434;SDS011;204;48.942;9.256;2023-02-13T11:13:15;18.95;;;17.80;;
434;SDS011;204;48.942;9.256;2023-02-13T11:15:54;32.92;;;28.48;;
434;SDS011;204;48.942;9.256;2023-02-13T11:18:26;22.73;;;20.63;;
434;SDS011;204;48.942;9.256;2023-02-13T11:20:58;14.35;;;13.05;;
434;SDS011;204;48.942;9.256;2023-02-13T11:23:39;13.40;;;12.32;;
434;SDS011;204;48.942;9.256;2023-02-13T11:26:09;13.25;;;12.02;;
434;SDS011;204;48.942;9.256;2023-02-13T11:28:47;12.05;;;11.45;;
434;SDS011;204;48.942;9.256;2023-02-13T11:33:56;13.30;;;11.27;;
434;SDS011;204;48.942;9.256;2023-02-13T11:36:31;12.45;;;11.20;;
434;SDS011;204;48.942;9.256;2023-02-13T11:39:02;12.73;;;12.02;;
434;SDS011;204;48.942;9.256;2023-02-13T11:41:42;15.02;;;12.02;;
434;SDS011;204;48.942;9.256;2023-02-13T11:44:28;13.38;;;11.30;;
434;SDS011;204;48.942;9.256;2023-02-13T11:46:57;12.60;;;11.23;;
434;SDS011;204;48.942;9.256;2023-02-13T11:51:54;12.70;;;11.43;;
434;SDS011;204;48.942;9.256;2023-02-13T11:54:35;15.63;;;13.52;;
434;SDS011;204;48.942;9.256;2023-02-13T11:59:53;11.43;;;10.82;;
434;SDS011;204;48.942;9.256;2023-02-13T12:05:40;12.23;;;11.30;;
434;SDS011;204;48.942;9.256;2023-02-13T12:07:59;17.27;;;12.40;;
434;SDS011;204;48.942;9.256;2023-02-13T12:15:20;14.13;;;11.65;;
434;SDS011;204;48.942;9.256;2023-02-13T12:18:11;12.77;;;10.50;;
434;SDS011;204;48.942;9.256;2023-02-13T12:28:38;12.35;;;11.52;;
434;SDS011;204;48.942;9.256;2023-02-13T12:39:37;13.57;;;12.15;;
434;SDS011;204;48.942;9.256;2023-02-13T12:42:33;12.05;;;11.45;;
434;SDS011;204;48.942;9.256;2023-02-13T12:53:28;10.93;;;10.32;;
434;SDS011;204;48.942;9.256;2023-02-13T12:59:11;12.32;;;11.57;;
434;SDS011;204;48.942;9.256;2023-02-13T13:15:24;12.00;;;10.18;;
434;SDS011;204;48.942;9.256;2023-02-13T13:29:05;10.95;;;10.35;;
434;SDS011;204;48.942;9.256;2023-02-13T13:31:36;10.57;;;9.63;;
434;SDS011;204;48.942;9.256;2023-02-13T13:34:05;11.98;;;11.38;;
434;SDS011;204;48.942;9.256;2023-02-13T13:37:40;10.40;;;9.75;;
434;SDS011;204;48.942;9.256;2023-02-13T13:48:05;10.35;;;9.82;;
434;SDS011;204;48.942;9.256;2023-02-13T13:50:39;10.50;;;9.95;;
434;SDS011;204;48.942;9.256;2023-02-13T14:03:48;14.73;;;13.98;;
434;SDS011;204;48.942;9.256;2023-02-13T14:06:17;10.52;;;9.98;;
434;SDS011;204;48.942;9.256;2023-02-13T14:11:58;10.50;;;9.70;;
434;SDS011;204;48.942;9.256;2023-02-13T14:14:04;9.65;;;8.50;;
434;SDS011;204;48.942;9.256;2023-02-13T14:16:53;12.25;;;11.00;;
434;SDS011;204;48.942;9.256;2023-02-13T14:24:52;13.30;;;12.60;;
434;SDS011;204;48.942;9.256;2023-02-13T14:27:21;9.68;;;9.00;;
434;SDS011;204;48.942;9.256;2023-02-13T14:29:47;12.82;;;10.50;;
434;SDS011;204;48.942;9.256;2023-02-13T14:32:15;14.93;;;14.13;;
434;SDS011;204;48.942;9.256;2023-02-13T14:34:41;11.18;;;10.57;;
434;SDS011;204;48.942;9.256;2023-02-13T14:37:17;11.10;;;10.07;;
434;SDS011;204;48.942;9.256;2023-02-13T14:42:39;10.63;;;9.40;;
434;SDS011;204;48.942;9.256;2023-02-13T14:45:12;8.48;;;8.00;;
434;SDS011;204;48.942;9.256;2023-02-13T14:47:42;7.90;;;7.50;;
434;SDS011;204;48.942;9.256;2023-02-13T14:50:19;9.57;;;8.35;;
434;SDS011;204;48.942;9.256;2023-02-13T14:52:46;9.48;;;8.57;;
434;SDS011;204;48.942;9.256;2023-02-13T14:55:26;9.45;;;8.95;;
434;SDS011;204;48.942;9.256;2023-02-13T14:58:00;10.63;;;9.88;;
434;SDS011;204;48.942;9.256;2023-02-13T15:00:42;8.88;;;8.30;;
434;SDS011;204;48.942;9.256;2023-02-13T15:03:27;9.60;;;8.18;;
434;SDS011;204;48.942;9.256;2023-02-13T15:06:13;10.70;;;9.10;;
434;SDS011;204;48.942;9.256;2023-02-13T15:09:05;32.42;;;30.83;;
434;SDS011;204;48.942;9.256;2023-02-13T15:11:59;13.35;;;12.65;;
434;SDS011;204;48.942;9.256;2023-02-13T15:17:01;11.90;;;11.30;;
434;SDS011;204;48.942;9.256;2023-02-13T15:19:30;10.50;;;9.95;;
434;SDS011;204;48.942;9.256;2023-02-13T15:22:00;11.73;;;11.13;;
434;SDS011;204;48.942;9.256;2023-02-13T15:24:34;9.25;;;8.75;;
434;SDS011;204;48.942;9.256;2023-02-13T15:29:57;8.27;;;7.72;;
434;SDS011;204;48.942;9.256;2023-02-13T15:32:29;9.20;;;8.70;;
434;SDS011;204;48.942;9.256;2023-02-13T15:34:57;9.10;;;8.60;;
434;SDS011;204;48.942;9.256;2023-02-13T15:37:24;9.70;;;9.20;;
434;SDS011;204;48.942;9.256;2023-02-13T15:39:53;11.70;;;10.15;;
434;SDS011;204;48.942;9.256;2023-02-13T15:42:18;10.70;;;9.87;;
434;SDS011;204;48.942;9.256;2023-02-13T15:44:46;12.23;;;10.30;;
434;SDS011;204;48.942;9.256;2023-02-13T15:47:24;11.88;;;10.30;;
434;SDS011;204;48.942;9.256;2023-02-13T15:49:52;9.75;;;9.13;;
434;SDS011;204;48.942;9.256;2023-02-13T15:52:24;11.90;;;10.50;;
434;SDS011;204;48.942;9.256;2023-02-13T15:55:00;11.52;;;10.05;;
434;SDS011;204;48.942;9.256;2023-02-13T15:57:26;11.87;;;8.97;;
434;SDS011;204;48.942;9.256;2023-02-13T15:59:53;8.93;;;8.40;;
434;SDS011;204;48.942;9.256;2023-02-13T16:02:21;13.48;;;9.20;;
434;SDS011;204;48.942;9.256;2023-02-13T16:05:10;9.20;;;8.73;;
434;SDS011;204;48.942;9.256;2023-02-13T16:07:45;9.98;;;9.48;;
434;SDS011;204;48.942;9.256;2023-02-13T16:10:13;9.50;;;9.00;;
434;SDS011;204;48.942;9.256;2023-02-13T16:12:45;11.32;;;9.80;;
434;SDS011;204;48.942;9.256;2023-02-13T16:15:14;10.77;;;9.45;;
434;SDS011;204;48.942;9.256;2023-02-13T16:17:42;10.50;;;9.95;;
434;SDS011;204;48.942;9.256;2023-02-13T16:25:24;11.23;;;10.50;;
434;SDS011;204;48.942;9.256;2023-02-13T16:27:55;11.70;;;11.10;;
434;SDS011;204;48.942;9.256;2023-02-13T16:33:08;13.57;;;12.45;;
434;SDS011;204;48.942;9.256;2023-02-13T16:40:56;13.18;;;12.50;;
434;SDS011;204;48.942;9.256;2023-02-13T16:48:36;14.18;;;13.48;;
434;SDS011;204;48.942;9.256;2023-02-13T16:51:02;12.75;;;12.05;;
434;SDS011;204;48.942;9.256;2023-02-13T16:53:28;13.23;;;12.43;;
434;SDS011;204;48.942;9.256;2023-02-13T16:55:58;11.07;;;10.30;;
434;SDS011;204;48.942;9.256;2023-02-13T16:58:26;11.82;;;10.85;;
434;SDS011;204;48.942;9.256;2023-02-13T17:00:52;13.27;;;11.47;;
434;SDS011;204;48.942;9.256;2023-02-13T17:03:18;15.60;;;12.70;;
434;SDS011;204;48.942;9.256;2023-02-13T17:05:43;11.93;;;10.87;;
434;SDS011;204;48.942;9.256;2023-02-13T17:08:09;14.20;;;13.53;;
434;SDS011;204;48.942;9.256;2023-02-13T17:10:35;11.03;;;10.47;;
434;SDS011;204;48.942;9.256;2023-02-13T17:13:12;12.98;;;11.00;;
434;SDS011;204;48.942;9.256;2023-02-13T17:15:42;11.82;;;10.48;;
434;SDS011;204;48.942;9.256;2023-02-13T17:18:09;13.60;;;11.48;;
434;SDS011;204;48.942;9.256;2023-02-13T17:20:35;13.20;;;12.13;;
434;SDS011;204;48.942;9.256;2023-02-13T17:23:05;17.65;;;16.75;;
434;SDS011;204;48.942;9.256;2023-02-13T17:25:37;13.77;;;11.45;;
434;SDS011;204;48.942;9.256;2023-02-13T17:28:09;12.43;;;11.80;;
434;SDS011;204;48.942;9.256;2023-02-13T17:30:38;14.63;;;12.13;;
434;SDS011;204;48.942;9.256;2023-02-13T17:33:05;12.50;;;11.15;;
434;SDS011;204;48.942;9.256;2023-02-13T17:35:31;14.52;;;13.27;;
434;SDS011;204;48.942;9.256;2023-02-13T17:37:59;15.15;;;13.13;;
434;SDS011;204;48.942;9.256;2023-02-13T17:40:25;16.50;;;13.63;;
434;SDS011;204;48.942;9.256;2023-02-13T17:42:53;29.20;;;26.63;;
434;SDS011;204;48.942;9.256;2023-02-13T17:45:21;19.73;;;17.77;;
434;SDS011;204;48.942;9.256;2023-02-13T17:47:48;22.15;;;20.67;;
434;SDS011;204;48.942;9.256;2023-02-13T17:50:14;27.50;;;25.00;;
434;SDS011;204;48.942;9.256;2023-02-13T17:52:41;24.90;;;21.05;;
434;SDS011;204;48.942;9.256;2023-02-13T17:55:16;20.23;;;17.02;;
434;SDS011;204;48.942;9.256;2023-02-13T17:57:47;17.98;;;14.13;;
434;SDS011;204;48.942;9.256;2023-02-13T18:00:13;22.45;;;21.35;;
434;SDS011;204;48.942;9.256;2023-02-13T18:02:40;22.63;;;21.52;;
434;SDS011;204;48.942;9.256;2023-02-13T18:05:09;22.23;;;18.85;;
434;SDS011;204;48.942;9.256;2023-02-13T18:07:35;22.95;;;19.77;;
434;SDS011;204;48.942;9.256;2023-02-13T18:10:01;19.80;;;16.30;;
434;SDS011;204;48.942;9.256;2023-02-13T18:12:26;19.80;;;16.40;;
434;SDS011;204;48.942;9.256;2023-02-13T18:14:52;35.10;;;27.03;;
434;SDS011;204;48.942;9.256;2023-02-13T18:17:18;23.20;;;18.00;;
434;SDS011;204;48.942;9.256;2023-02-13T18:19:45;20.05;;;16.48;;
434;SDS011;204;48.942;9.256;2023-02-13T18:22:11;19.30;;;16.50;;
434;SDS011;204;48.942;9.256;2023-02-13T18:24:48;21.25;;;16.50;;
434;SDS011;204;48.942;9.256;2023-02-13T18:27:20;22.20;;;16.95;;
434;SDS011;204;48.942;9.256;2023-02-13T18:29:49;20.73;;;15.55;;
434;SDS011;204;48.942;9.256;2023-02-13T18:32:15;21.03;;;18.30;;
434;SDS011;204;48.942;9.256;2023-02-13T18:34:40;22.37;;;17.80;;
434;SDS011;204;48.942;9.256;2023-02-13T18:37:06;23.60;;;20.37;;
434;SDS011;204;48.942;9.256;2023-02-13T18:39:33;20.50;;;16.50;;
434;SDS011;204;48.942;9.256;2023-02-13T18:41:58;20.20;;;16.00;;
434;SDS011;204;48.942;9.256;2023-02-13T18:44:25;22.88;;;19.48;;
434;SDS011;204;48.942;9.256;2023-02-13T18:46:51;19.57;;;17.20;;
434;SDS011;204;48.942;9.256;2023-02-13T18:49:16;28.50;;;26.37;;
434;SDS011;204;48.942;9.256;2023-02-13T18:51:42;29.37;;;26.97;;
434;SDS011;204;48.942;9.256;2023-02-13T18:54:08;26.05;;;22.23;;
434;SDS011;204;48.942;9.256;2023-02-13T18:56:34;22.05;;;18.15;;
434;SDS011;204;48.942;9.256;2023-02-13T18:59:00;23.63;;;18.47;;